sensor_id;sensor_type;location;lat;lon;timestamp;pressure;altitude;pressure_sealevel;temperature;humidity
70370;BME280;57790;51.356;-2.906;2024-03-22T00:00:46;102356.00;;;12.47;100.00
70370;BME280;57790;51.356;-2.906;2024-03-22T00:03:46;102361.19;;;12.49;100.00
70370;BME280;57790;51.356;-2.906;2024-03-22T00:06:48;102355.47;;;12.54;100.00
70370;BME280;57790;51.356;-2.906;2024-03-22T00:09:48;102358.13;;;12.54;100.00
70370;BME280;57790;51.356;-2.906;2024-03-22T00:12:49;102360.22;;;12.50;100.00
70370;BME280;57790;51.356;-2.906;2024-03-22T00:15:49;102352.94;;;12.52;100.00
70370;BME280;57790;51.356;-2.906;2024-03-22T00:18:50;102346.06;;;12.49;100.00
70370;BME280;57790;51.356;-2.906;2024-03-22T00:21:50;102347.47;;;12.54;100.00
70370;BME280;57790;51.356;-2.906;2024-03-22T00:24:51;102337.97;;;12.51;100.00
70370;BME280;57790;51.356;-2.906;2024-03-22T00:27:51;102352.25;;;12.50;100.00
70370;BME280;57790;51.356;-2.906;2024-03-22T00:30:52;102342.16;;;12.54;100.00
70370;BME280;57790;51.356;-2.906;2024-03-22T00:33:52;102335.88;;;12.55;100.00
70370;BME280;57790;51.356;-2.906;2024-03-22T00:36:52;102332.34;;;12.54;100.00
70370;BME280;57790;51.356;-2.906;2024-03-22T00:39:53;102319.19;;;12.52;100.00
70370;BME280;57790;51.356;-2.906;2024-03-22T00:42:53;102310.81;;;12.57;100.00
70370;BME280;57790;51.356;-2.906;2024-03-22T00:45:53;102316.41;;;12.54;100.00
70370;BME280;57790;51.356;-2.906;2024-03-22T00:48:54;102305.63;;;12.56;100.00
70370;BME280;57790;51.356;-2.906;2024-03-22T00:51:54;102298.75;;;12.53;100.00
70370;BME280;57790;51.356;-2.906;2024-03-22T00:54:56;102296.09;;;12.53;100.00
70370;BME280;57790;51.356;-2.906;2024-03-22T00:57:56;102295.53;;;12.49;100.00
70370;BME280;57790;51.356;-2.906;2024-03-22T01:00:57;102297.78;;;12.54;100.00
70370;BME280;57790;51.356;-2.906;2024-03-22T01:03:57;102303.28;;;12.62;100.00
70370;BME280;57790;51.356;-2.906;2024-03-22T01:06:57;102299.47;;;12.55;100.00
70370;BME280;57790;51.356;-2.906;2024-03-22T01:09:59;102299.91;;;12.60;100.00
70370;BME280;57790;51.356;-2.906;2024-03-22T01:12:59;102297.50;;;12.57;100.00
70370;BME280;57790;51.356;-2.906;2024-03-22T01:16:00;102296.25;;;12.51;100.00
70370;BME280;57790;51.356;-2.906;2024-03-22T01:19:01;102294.84;;;12.57;100.00
70370;BME280;57790;51.356;-2.906;2024-03-22T01:22:01;102294.41;;;12.52;100.00
70370;BME280;57790;51.356;-2.906;2024-03-22T01:25:01;102292.75;;;12.51;100.00
70370;BME280;57790;51.356;-2.906;2024-03-22T01:28:02;102291.19;;;12.48;100.00
70370;BME280;57790;51.356;-2.906;2024-03-22T01:31:04;102294.56;;;12.50;100.00
70370;BME280;57790;51.356;-2.906;2024-03-22T01:34:04;102291.34;;;12.57;100.00
70370;BME280;57790;51.356;-2.906;2024-03-22T01:37:05;102285.03;;;12.58;100.00
70370;BME280;57790;51.356;-2.906;2024-03-22T01:40:08;102281.81;;;12.54;100.00
70370;BME280;57790;51.356;-2.906;2024-03-22T01:43:08;102278.63;;;12.60;100.00
70370;BME280;57790;51.356;-2.906;2024-03-22T01:46:09;102278.88;;;12.57;100.00
70370;BME280;57790;51.356;-2.906;2024-03-22T01:49:13;102275.38;;;12.57;100.00
70370;BME280;57790;51.356;-2.906;2024-03-22T01:52:15;102276.94;;;12.59;100.00
70370;BME280;57790;51.356;-2.906;2024-03-22T01:55:16;102267.97;;;12.50;100.00
70370;BME280;57790;51.356;-2.906;2024-03-22T01:58:17;102262.66;;;12.60;100.00
70370;BME280;57790;51.356;-2.906;2024-03-22T02:01:18;102265.16;;;12.52;100.00
70370;BME280;57790;51.356;-2.906;2024-03-22T02:04:18;102257.03;;;12.54;100.00
70370;BME280;57790;51.356;-2.906;2024-03-22T02:07:19;102250.44;;;12.58;100.00
70370;BME280;57790;51.356;-2.906;2024-03-22T02:10:19;102255.06;;;12.56;100.00
70370;BME280;57790;51.356;-2.906;2024-03-22T02:13:20;102241.06;;;12.54;100.00
70370;BME280;57790;51.356;-2.906;2024-03-22T02:16:21;102243.59;;;12.45;100.00
70370;BME280;57790;51.356;-2.906;2024-03-22T02:19:21;102228.63;;;12.44;100.00
70370;BME280;57790;51.356;-2.906;2024-03-22T02:22:21;102219.94;;;12.52;100.00
70370;BME280;57790;51.356;-2.906;2024-03-22T02:25:22;102222.44;;;12.54;100.00
70370;BME280;57790;51.356;-2.906;2024-03-22T02:28:22;102227.63;;;12.55;100.00
70370;BME280;57790;51.356;-2.906;2024-03-22T02:31:22;102221.75;;;12.51;100.00
70370;BME280;57790;51.356;-2.906;2024-03-22T02:34:24;102206.50;;;12.54;100.00
70370;BME280;57790;51.356;-2.906;2024-03-22T02:37:24;102199.91;;;12.48;100.00
70370;BME280;57790;51.356;-2.906;2024-03-22T02:40:25;102195.16;;;12.51;100.00
70370;BME280;57790;51.356;-2.906;2024-03-22T02:43:25;102181.16;;;12.49;100.00
70370;BME280;57790;51.356;-2.906;2024-03-22T02:46:25;102181.16;;;12.49;100.00
70370;BME280;57790;51.356;-2.906;2024-03-22T02:49:26;102170.09;;;12.44;100.00
70370;BME280;57790;51.356;-2.906;2024-03-22T02:52:26;102171.50;;;12.48;100.00
70370;BME280;57790;51.356;-2.906;2024-03-22T02:55:26;102172.06;;;12.52;100.00
70370;BME280;57790;51.356;-2.906;2024-03-22T02:58:27;102171.34;;;12.50;100.00
70370;BME280;57790;51.356;-2.906;2024-03-22T03:01:27;102159.59;;;12.52;100.00
70370;BME280;57790;51.356;-2.906;2024-03-22T03:04:27;102161.16;;;12.45;100.00
70370;BME280;57790;51.356;-2.906;2024-03-22T03:07:28;102156.78;;;12.54;100.00
70370;BME280;57790;51.356;-2.906;2024-03-22T03:10:28;102159.72;;;12.51;100.00
70370;BME280;57790;51.356;-2.906;2024-03-22T03:13:29;102162.22;;;12.43;100.00
70370;BME280;57790;51.356;-2.906;2024-03-22T03:16:29;102154.81;;;12.37;100.00
70370;BME280;57790;51.356;-2.906;2024-03-22T03:19:30;102158.59;;;12.44;100.00
70370;BME280;57790;51.356;-2.906;2024-03-22T03:22:30;102155.66;;;12.37;100.00
70370;BME280;57790;51.356;-2.906;2024-03-22T03:25:30;102156.22;;;12.41;100.00
70370;BME280;57790;51.356;-2.906;2024-03-22T03:28:31;102149.53;;;12.46;100.00
70370;BME280;57790;51.356;-2.906;2024-03-22T03:31:31;102136.50;;;12.53;100.00
70370;BME280;57790;51.356;-2.906;2024-03-22T03:34:31;102141.38;;;12.58;100.00
70370;BME280;57790;51.356;-2.906;2024-03-22T03:37:32;102138.16;;;12.54;100.00
70370;BME280;57790;51.356;-2.906;2024-03-22T03:40:32;102135.50;;;12.54;100.00
70370;BME280;57790;51.356;-2.906;2024-03-22T03:43:32;102141.53;;;12.56;100.00
70370;BME280;57790;51.356;-2.906;2024-03-22T03:46:33;102132.00;;;12.54;100.00
70370;BME280;57790;51.356;-2.906;2024-03-22T03:49:33;102138.03;;;12.46;100.00
70370;BME280;57790;51.356;-2.906;2024-03-22T03:52:33;102132.00;;;12.54;100.00
70370;BME280;57790;51.356;-2.906;2024-03-22T03:55:34;102130.72;;;12.58;100.00
70370;BME280;57790;51.356;-2.906;2024-03-22T03:58:34;102136.34;;;12.35;100.00
70370;BME280;57790;51.356;-2.906;2024-03-22T04:01:35;102128.50;;;12.43;100.00
70370;BME280;57790;51.356;-2.906;2024-03-22T04:04:35;102120.13;;;12.48;100.00
70370;BME280;57790;51.356;-2.906;2024-03-22T04:07:36;102126.28;;;12.48;100.00
70370;BME280;57790;51.356;-2.906;2024-03-22T04:10:36;102109.88;;;12.53;100.00
70370;BME280;57790;51.356;-2.906;2024-03-22T04:13:36;102118.69;;;12.54;100.00
70370;BME280;57790;51.356;-2.906;2024-03-22T04:16:37;102113.81;;;12.59;100.00
70370;BME280;57790;51.356;-2.906;2024-03-22T04:19:37;102119.25;;;12.57;100.00
70370;BME280;57790;51.356;-2.906;2024-03-22T04:22:38;102113.66;;;12.50;100.00
70370;BME280;57790;51.356;-2.906;2024-03-22T04:25:38;102108.06;;;12.44;100.00
70370;BME280;57790;51.356;-2.906;2024-03-22T04:28:38;102106.28;;;12.44;100.00
70370;BME280;57790;51.356;-2.906;2024-03-22T04:31:39;102110.72;;;12.44;100.00
70370;BME280;57790;51.356;-2.906;2024-03-22T04:34:42;102116.47;;;12.49;100.00
70370;BME280;57790;51.356;-2.906;2024-03-22T04:37:43;102116.63;;;12.47;100.00
70370;BME280;57790;51.356;-2.906;2024-03-22T04:40:43;102121.50;;;12.52;100.00
70370;BME280;57790;51.356;-2.906;2024-03-22T04:43:44;102115.34;;;12.51;100.00
70370;BME280;57790;51.356;-2.906;2024-03-22T04:46:44;102109.03;;;12.52;100.00
70370;BME280;57790;51.356;-2.906;2024-03-22T04:49:44;102109.47;;;12.48;100.00
70370;BME280;57790;51.356;-2.906;2024-03-22T04:52:45;102102.75;;;12.54;100.00
70370;BME280;57790;51.356;-2.906;2024-03-22T04:55:45;102102.19;;;12.50;100.00
70370;BME280;57790;51.356;-2.906;2024-03-22T04:58:45;102104.84;;;12.50;100.00
70370;BME280;57790;51.356;-2.906;2024-03-22T05:01:46;102120.81;;;12.40;100.00
70370;BME280;57790;51.356;-2.906;2024-03-22T05:04:46;102111.84;;;12.51;100.00
70370;BME280;57790;51.356;-2.906;2024-03-22T05:07:49;102108.63;;;12.47;100.00
70370;BME280;57790;51.356;-2.906;2024-03-22T05:10:50;102110.19;;;12.50;100.00
70370;BME280;57790;51.356;-2.906;2024-03-22T05:13:50;102101.06;;;12.52;100.00
70370;BME280;57790;51.356;-2.906;2024-03-22T05:16:50;102101.75;;;12.55;100.00
70370;BME280;57790;51.356;-2.906;2024-03-22T05:19:52;102094.06;;;12.51;100.00
70370;BME280;57790;51.356;-2.906;2024-03-22T05:22:53;102086.94;;;12.52;100.00
70370;BME280;57790;51.356;-2.906;2024-03-22T05:25:53;102090.28;;;12.54;100.00
70370;BME280;57790;51.356;-2.906;2024-03-22T05:28:53;102083.56;;;12.50;100.00
70370;BME280;57790;51.356;-2.906;2024-03-22T05:31:54;102090.72;;;12.59;100.00
70370;BME280;57790;51.356;-2.906;2024-03-22T05:34:54;102091.94;;;12.65;100.00
70370;BME280;57790;51.356;-2.906;2024-03-22T05:37:55;102093.50;;;12.58;100.00
70370;BME280;57790;51.356;-2.906;2024-03-22T05:40:55;102087.47;;;12.56;100.00
70370;BME280;57790;51.356;-2.906;2024-03-22T05:43:55;102098.25;;;12.54;100.00
70370;BME280;57790;51.356;-2.906;2024-03-22T05:46:56;102095.75;;;12.52;100.00
70370;BME280;57790;51.356;-2.906;2024-03-22T05:49:57;102096.28;;;12.56;100.00
70370;BME280;57790;51.356;-2.906;2024-03-22T05:52:57;102085.50;;;12.58;100.00
70370;BME280;57790;51.356;-2.906;2024-03-22T05:55:58;102085.66;;;12.56;100.00
70370;BME280;57790;51.356;-2.906;2024-03-22T05:58:58;102090.72;;;12.59;100.00
70370;BME280;57790;51.356;-2.906;2024-03-22T06:01:59;102097.56;;;12.52;100.00
70370;BME280;57790;51.356;-2.906;2024-03-22T06:05:01;102100.53;;;12.59;100.00
70370;BME280;57790;51.356;-2.906;2024-03-22T06:08:01;102098.69;;;12.59;100.00
70370;BME280;57790;51.356;-2.906;2024-03-22T06:11:04;102097.00;;;12.58;100.00
70370;BME280;57790;51.356;-2.906;2024-03-22T06:14:04;102105.84;;;12.59;100.00
70370;BME280;57790;51.356;-2.906;2024-03-22T06:17:07;102110.03;;;12.61;100.00
70370;BME280;57790;51.356;-2.906;2024-03-22T06:20:12;102100.91;;;12.64;100.00
70370;BME280;57790;51.356;-2.906;2024-03-22T06:23:12;102094.75;;;12.63;100.00
70370;BME280;57790;51.356;-2.906;2024-03-22T06:26:13;102095.19;;;12.59;100.00
70370;BME280;57790;51.356;-2.906;2024-03-22T06:29:13;102104.16;;;12.48;100.00
70370;BME280;57790;51.356;-2.906;2024-03-22T06:32:14;102109.78;;;12.45;100.00
70370;BME280;57790;51.356;-2.906;2024-03-22T06:35:14;102101.34;;;12.49;100.00
70370;BME280;57790;51.356;-2.906;2024-03-22T06:38:14;102106.69;;;12.49;100.00
70370;BME280;57790;51.356;-2.906;2024-03-22T06:41:15;102111.69;;;12.43;100.00
70370;BME280;57790;51.356;-2.906;2024-03-22T06:44:15;102101.50;;;12.48;100.00
70370;BME280;57790;51.356;-2.906;2024-03-22T06:47:15;102099.97;;;12.45;100.00
70370;BME280;57790;51.356;-2.906;2024-03-22T06:50:17;102109.47;;;12.48;100.00
70370;BME280;57790;51.356;-2.906;2024-03-22T06:53:24;102111.31;;;12.47;100.00
70370;BME280;57790;51.356;-2.906;2024-03-22T06:56:25;102114.81;;;12.48;100.00
70370;BME280;57790;51.356;-2.906;2024-03-22T06:59:25;102106.69;;;12.49;100.00
70370;BME280;57790;51.356;-2.906;2024-03-22T07:02:26;102097.72;;;12.50;100.00
70370;BME280;57790;51.356;-2.906;2024-03-22T07:05:27;102096.28;;;12.56;100.00
70370;BME280;57790;51.356;-2.906;2024-03-22T07:08:27;102092.09;;;12.54;100.00
70370;BME280;57790;51.356;-2.906;2024-03-22T07:11:27;102102.75;;;12.54;100.00
70370;BME280;57790;51.356;-2.906;2024-03-22T07:14:28;102116.59;;;12.57;100.00
70370;BME280;57790;51.356;-2.906;2024-03-22T07:17:34;102106.78;;;12.58;100.00
70370;BME280;57790;51.356;-2.906;2024-03-22T07:20:35;102096.72;;;12.61;100.00
70370;BME280;57790;51.356;-2.906;2024-03-22T07:23:36;102103.88;;;12.61;100.00
70370;BME280;57790;51.356;-2.906;2024-03-22T07:26:36;102112.53;;;12.63;100.00
70370;BME280;57790;51.356;-2.906;2024-03-22T07:29:37;102117.19;;;12.61;100.00
70370;BME280;57790;51.356;-2.906;2024-03-22T07:32:37;102127.66;;;12.62;100.00
70370;BME280;57790;51.356;-2.906;2024-03-22T07:35:39;102127.66;;;12.62;100.00
70370;BME280;57790;51.356;-2.906;2024-03-22T07:38:39;102131.88;;;12.65;100.00
70370;BME280;57790;51.356;-2.906;2024-03-22T07:41:39;102126.00;;;12.61;100.00
70370;BME280;57790;51.356;-2.906;2024-03-22T07:44:40;102133.13;;;12.61;100.00
70370;BME280;57790;51.356;-2.906;2024-03-22T07:47:40;102131.31;;;12.61;100.00
70370;BME280;57790;51.356;-2.906;2024-03-22T07:50:43;102133.41;;;12.58;100.00
70370;BME280;57790;51.356;-2.906;2024-03-22T07:53:43;102130.47;;;12.61;100.00
70370;BME280;57790;51.356;-2.906;2024-03-22T07:56:43;102135.09;;;12.59;100.00
70370;BME280;57790;51.356;-2.906;2024-03-22T07:59:44;102135.78;;;12.61;100.00
70370;BME280;57790;51.356;-2.906;2024-03-22T08:02:45;102140.44;;;12.59;100.00
70370;BME280;57790;51.356;-2.906;2024-03-22T08:05:45;102152.84;;;12.58;100.00
70370;BME280;57790;51.356;-2.906;2024-03-22T08:08:45;102153.28;;;12.63;100.00
70370;BME280;57790;51.356;-2.906;2024-03-22T08:11:46;102146.28;;;12.62;100.00
70370;BME280;57790;51.356;-2.906;2024-03-22T08:14:46;102161.72;;;12.59;100.00
70370;BME280;57790;51.356;-2.906;2024-03-22T08:17:52;102146.16;;;12.54;100.00
70370;BME280;57790;51.356;-2.906;2024-03-22T08:20:55;102148.25;;;12.60;100.00
70370;BME280;57790;51.356;-2.906;2024-03-22T08:23:56;102156.50;;;12.57;100.00
70370;BME280;57790;51.356;-2.906;2024-03-22T08:26:56;102166.16;;;12.58;100.00
70370;BME280;57790;51.356;-2.906;2024-03-22T08:29:56;102165.47;;;12.56;100.00
70370;BME280;57790;51.356;-2.906;2024-03-22T08:32:57;102160.13;;;12.56;100.00
70370;BME280;57790;51.356;-2.906;2024-03-22T08:35:57;102165.22;;;12.59;100.00
70370;BME280;57790;51.356;-2.906;2024-03-22T08:38:58;102166.16;;;12.58;100.00
70370;BME280;57790;51.356;-2.906;2024-03-22T08:41:58;102163.94;;;12.63;100.00
70370;BME280;57790;51.356;-2.906;2024-03-22T08:44:58;102163.50;;;12.58;100.00
70370;BME280;57790;51.356;-2.906;2024-03-22T08:47:59;102167.88;;;12.59;100.00
70370;BME280;57790;51.356;-2.906;2024-03-22T08:50:59;102178.22;;;12.62;100.00
70370;BME280;57790;51.356;-2.906;2024-03-22T08:53:59;102183.41;;;12.64;100.00
70370;BME280;57790;51.356;-2.906;2024-03-22T08:57:01;102171.22;;;12.61;100.00
70370;BME280;57790;51.356;-2.906;2024-03-22T09:00:02;102179.19;;;12.61;100.00
70370;BME280;57790;51.356;-2.906;2024-03-22T09:03:03;102191.81;;;12.59;100.00
70370;BME280;57790;51.356;-2.906;2024-03-22T09:06:03;102187.44;;;12.58;100.00
70370;BME280;57790;51.356;-2.906;2024-03-22T09:09:04;102186.59;;;12.58;100.00
70370;BME280;57790;51.356;-2.906;2024-03-22T09:12:05;102182.84;;;12.60;100.00
70370;BME280;57790;51.356;-2.906;2024-03-22T09:15:05;102181.03;;;12.61;100.00
70370;BME280;57790;51.356;-2.906;2024-03-22T09:18:13;102182.56;;;12.63;100.00
70370;BME280;57790;51.356;-2.906;2024-03-22T09:21:16;102172.91;;;12.62;100.00
70370;BME280;57790;51.356;-2.906;2024-03-22T09:24:16;102172.47;;;12.67;100.00
70370;BME280;57790;51.356;-2.906;2024-03-22T09:27:17;102171.63;;;12.66;100.00
70370;BME280;57790;51.356;-2.906;2024-03-22T09:30:17;102161.00;;;12.66;100.00
70370;BME280;57790;51.356;-2.906;2024-03-22T09:33:18;102170.66;;;12.67;100.00
70370;BME280;57790;51.356;-2.906;2024-03-22T09:36:18;102168.00;;;12.67;100.00
70370;BME280;57790;51.356;-2.906;2024-03-22T09:39:19;102175.97;;;12.67;100.00
70370;BME280;57790;51.356;-2.906;2024-03-22T09:42:22;102171.19;;;12.71;100.00
70370;BME280;57790;51.356;-2.906;2024-03-22T09:45:23;102162.13;;;12.73;100.00
70370;BME280;57790;51.356;-2.906;2024-03-22T09:48:23;102169.13;;;12.74;100.00
70370;BME280;57790;51.356;-2.906;2024-03-22T09:51:24;102170.78;;;12.75;100.00
70370;BME280;57790;51.356;-2.906;2024-03-22T09:54:24;102168.28;;;12.74;100.00
70370;BME280;57790;51.356;-2.906;2024-03-22T09:57:26;102181.44;;;12.75;100.00
70370;BME280;57790;51.356;-2.906;2024-03-22T10:00:27;102159.31;;;12.75;100.00
70370;BME280;57790;51.356;-2.906;2024-03-22T10:03:27;102168.84;;;12.77;100.00
70370;BME280;57790;51.356;-2.906;2024-03-22T10:06:29;102169.81;;;12.76;100.00
70370;BME280;57790;51.356;-2.906;2024-03-22T10:09:30;102168.69;;;12.79;100.00
70370;BME280;57790;51.356;-2.906;2024-03-22T10:12:31;102157.50;;;12.75;100.00
70370;BME280;57790;51.356;-2.906;2024-03-22T10:15:31;102166.03;;;12.79;100.00
70370;BME280;57790;51.356;-2.906;2024-03-22T10:18:37;102160.56;;;12.80;100.00
70370;BME280;57790;51.356;-2.906;2024-03-22T10:21:38;102167.41;;;12.83;100.00
70370;BME280;57790;51.356;-2.906;2024-03-22T10:24:38;102161.25;;;12.82;100.00
70370;BME280;57790;51.356;-2.906;2024-03-22T10:27:40;102171.06;;;12.82;100.00
70370;BME280;57790;51.356;-2.906;2024-03-22T10:30:40;102172.44;;;12.86;100.00
70370;BME280;57790;51.356;-2.906;2024-03-22T10:33:44;102165.88;;;12.80;100.00
70370;BME280;57790;51.356;-2.906;2024-03-22T10:36:46;102162.53;;;12.88;100.00
70370;BME280;57790;51.356;-2.906;2024-03-22T10:39:48;102159.13;;;12.86;100.00
70370;BME280;57790;51.356;-2.906;2024-03-22T10:42:50;102164.47;;;12.86;100.00
70370;BME280;57790;51.356;-2.906;2024-03-22T10:45:51;102159.56;;;12.91;100.00
70370;BME280;57790;51.356;-2.906;2024-03-22T10:48:55;102154.78;;;12.95;100.00
70370;BME280;57790;51.356;-2.906;2024-03-22T10:51:58;102148.63;;;12.94;100.00
70370;BME280;57790;51.356;-2.906;2024-03-22T10:55:02;102149.31;;;13.06;100.00
70370;BME280;57790;51.356;-2.906;2024-03-22T10:58:04;102151.00;;;13.07;100.00
70370;BME280;57790;51.356;-2.906;2024-03-22T11:01:05;102156.16;;;13.08;100.00
70370;BME280;57790;51.356;-2.906;2024-03-22T11:04:06;102147.50;;;13.06;100.00
70370;BME280;57790;51.356;-2.906;2024-03-22T11:07:07;102156.28;;;13.17;100.00
70370;BME280;57790;51.356;-2.906;2024-03-22T11:10:08;102146.06;;;13.31;100.00
70370;BME280;57790;51.356;-2.906;2024-03-22T11:13:08;102150.81;;;13.28;100.00
70370;BME280;57790;51.356;-2.906;2024-03-22T11:16:09;102149.13;;;13.27;100.00
70370;BME280;57790;51.356;-2.906;2024-03-22T11:19:10;102146.63;;;13.25;100.00
70370;BME280;57790;51.356;-2.906;2024-03-22T11:22:10;102149.44;;;13.24;100.00
70370;BME280;57790;51.356;-2.906;2024-03-22T11:25:11;102148.03;;;13.20;100.00
70370;BME280;57790;51.356;-2.906;2024-03-22T11:28:12;102143.94;;;13.25;100.00
70370;BME280;57790;51.356;-2.906;2024-03-22T11:31:12;102151.78;;;13.27;100.00
70370;BME280;57790;51.356;-2.906;2024-03-22T11:34:13;102140.31;;;13.26;100.00
70370;BME280;57790;51.356;-2.906;2024-03-22T11:37:13;102143.41;;;13.22;100.00
70370;BME280;57790;51.356;-2.906;2024-03-22T11:40:14;102136.81;;;13.26;100.00
70370;BME280;57790;51.356;-2.906;2024-03-22T11:43:15;102141.28;;;13.25;100.00
70370;BME280;57790;51.356;-2.906;2024-03-22T11:46:17;102146.31;;;13.28;100.00
70370;BME280;57790;51.356;-2.906;2024-03-22T11:49:18;102134.56;;;13.31;100.00
70370;BME280;57790;51.356;-2.906;2024-03-22T11:52:24;102132.13;;;13.37;100.00
70370;BME280;57790;51.356;-2.906;2024-03-22T11:55:27;102128.47;;;13.38;100.00
70370;BME280;57790;51.356;-2.906;2024-03-22T11:58:28;102135.78;;;13.36;100.00
70370;BME280;57790;51.356;-2.906;2024-03-22T12:01:28;102130.06;;;13.31;100.00
70370;BME280;57790;51.356;-2.906;2024-03-22T12:04:29;102135.50;;;13.30;100.00
70370;BME280;57790;51.356;-2.906;2024-03-22T12:07:29;102131.75;;;13.32;100.00
70370;BME280;57790;51.356;-2.906;2024-03-22T12:10:29;102130.75;;;13.33;100.00
70370;BME280;57790;51.356;-2.906;2024-03-22T12:13:30;102133.13;;;13.36;100.00
70370;BME280;57790;51.356;-2.906;2024-03-22T12:16:30;102127.50;;;13.39;100.00
70370;BME280;57790;51.356;-2.906;2024-03-22T12:19:30;102127.19;;;13.43;100.00
70370;BME280;57790;51.356;-2.906;2024-03-22T12:22:31;102119.06;;;13.44;100.00
70370;BME280;57790;51.356;-2.906;2024-03-22T12:25:31;102127.88;;;13.45;100.00
70370;BME280;57790;51.356;-2.906;2024-03-22T12:28:32;102117.94;;;13.47;100.00
70370;BME280;57790;51.356;-2.906;2024-03-22T12:31:32;102107.81;;;13.50;100.00
70370;BME280;57790;51.356;-2.906;2024-03-22T12:34:32;102106.91;;;13.59;100.00
70370;BME280;57790;51.356;-2.906;2024-03-22T12:37:33;102106.91;;;13.59;100.00
70370;BME280;57790;51.356;-2.906;2024-03-22T12:40:34;102105.97;;;13.60;100.00
70370;BME280;57790;51.356;-2.906;2024-03-22T12:43:34;102096.25;;;13.59;100.00
70370;BME280;57790;51.356;-2.906;2024-03-22T12:46:35;102097.34;;;13.66;100.00
70370;BME280;57790;51.356;-2.906;2024-03-22T12:49:35;102095.22;;;13.70;100.00
70370;BME280;57790;51.356;-2.906;2024-03-22T12:52:35;102088.06;;;13.70;100.00
70370;BME280;57790;51.356;-2.906;2024-03-22T12:55:36;102086.09;;;13.73;100.00
70370;BME280;57790;51.356;-2.906;2024-03-22T12:58:36;102084.13;;;13.75;100.00
70370;BME280;57790;51.356;-2.906;2024-03-22T13:01:37;102086.50;;;13.78;100.00
70370;BME280;57790;51.356;-2.906;2024-03-22T13:04:38;102086.34;;;13.79;100.00
70370;BME280;57790;51.356;-2.906;2024-03-22T13:07:38;102085.19;;;13.82;100.00
70370;BME280;57790;51.356;-2.906;2024-03-22T13:10:39;102078.72;;;13.84;100.00
70370;BME280;57790;51.356;-2.906;2024-03-22T13:13:43;102077.56;;;13.87;100.00
70370;BME280;57790;51.356;-2.906;2024-03-22T13:16:46;102075.91;;;13.86;100.00
70370;BME280;57790;51.356;-2.906;2024-03-22T13:19:46;102069.00;;;13.93;100.00
70370;BME280;57790;51.356;-2.906;2024-03-22T13:22:47;102063.19;;;13.97;100.00
70370;BME280;57790;51.356;-2.906;2024-03-22T13:25:47;102061.84;;;13.93;100.00
70370;BME280;57790;51.356;-2.906;2024-03-22T13:28:48;102059.84;;;13.95;100.00
70370;BME280;57790;51.356;-2.906;2024-03-22T13:31:48;102050.53;;;13.99;100.00
70370;BME280;57790;51.356;-2.906;2024-03-22T13:34:48;102040.97;;;14.07;100.00
70370;BME280;57790;51.356;-2.906;2024-03-22T13:37:50;102039.66;;;14.11;100.00
70370;BME280;57790;51.356;-2.906;2024-03-22T13:40:57;102038.75;;;14.20;100.00
70370;BME280;57790;51.356;-2.906;2024-03-22T13:44:04;102030.75;;;14.20;100.00
70370;BME280;57790;51.356;-2.906;2024-03-22T13:47:06;102027.09;;;14.21;100.00
70370;BME280;57790;51.356;-2.906;2024-03-22T13:50:07;102026.25;;;14.20;100.00
70370;BME280;57790;51.356;-2.906;2024-03-22T13:53:10;102015.19;;;14.15;100.00
70370;BME280;57790;51.356;-2.906;2024-03-22T13:56:11;102017.44;;;14.28;100.00
70370;BME280;57790;51.356;-2.906;2024-03-22T13:59:11;102009.13;;;14.31;100.00
70370;BME280;57790;51.356;-2.906;2024-03-22T14:02:13;102023.19;;;14.33;100.00
70370;BME280;57790;51.356;-2.906;2024-03-22T14:05:13;102016.84;;;14.34;100.00
70370;BME280;57790;51.356;-2.906;2024-03-22T14:08:14;102015.53;;;14.38;100.00
70370;BME280;57790;51.356;-2.906;2024-03-22T14:11:15;102004.53;;;14.41;100.00
70370;BME280;57790;51.356;-2.906;2024-03-22T14:14:15;102014.38;;;14.41;100.00
70370;BME280;57790;51.356;-2.906;2024-03-22T14:17:15;102001.72;;;14.43;100.00
70370;BME280;57790;51.356;-2.906;2024-03-22T14:20:16;101999.22;;;14.41;100.00
70370;BME280;57790;51.356;-2.906;2024-03-22T14:23:17;101996.69;;;14.40;100.00
70370;BME280;57790;51.356;-2.906;2024-03-22T14:26:17;101991.53;;;14.38;100.00
70370;BME280;57790;51.356;-2.906;2024-03-22T14:29:18;101992.69;;;14.36;100.00
70370;BME280;57790;51.356;-2.906;2024-03-22T14:32:19;101988.84;;;14.38;100.00
70370;BME280;57790;51.356;-2.906;2024-03-22T14:35:19;101982.53;;;14.39;100.00
70370;BME280;57790;51.356;-2.906;2024-03-22T14:38:22;101992.59;;;14.45;100.00
70370;BME280;57790;51.356;-2.906;2024-03-22T14:41:22;101991.19;;;14.41;100.00
70370;BME280;57790;51.356;-2.906;2024-03-22T14:44:23;101990.63;;;14.47;100.00
70370;BME280;57790;51.356;-2.906;2024-03-22T14:47:23;101985.59;;;14.44;100.00
70370;BME280;57790;51.356;-2.906;2024-03-22T14:50:23;101975.19;;;14.41;100.00
70370;BME280;57790;51.356;-2.906;2024-03-22T14:53:24;101973.53;;;14.40;100.00
70370;BME280;57790;51.356;-2.906;2024-03-22T14:56:24;101981.06;;;14.45;100.00
70370;BME280;57790;51.356;-2.906;2024-03-22T14:59:30;101982.38;;;14.41;100.00
70370;BME280;57790;51.356;-2.906;2024-03-22T15:02:31;101975.59;;;14.46;100.00
70370;BME280;57790;51.356;-2.906;2024-03-22T15:05:32;101969.28;;;14.47;100.00
70370;BME280;57790;51.356;-2.906;2024-03-22T15:08:32;101960.44;;;14.47;100.00
70370;BME280;57790;51.356;-2.906;2024-03-22T15:11:32;101973.78;;;14.47;100.00
70370;BME280;57790;51.356;-2.906;2024-03-22T15:14:33;101973.47;;;14.50;100.00
70370;BME280;57790;51.356;-2.906;2024-03-22T15:17:33;101959.16;;;14.59;100.00
70370;BME280;57790;51.356;-2.906;2024-03-22T15:20:34;101966.31;;;14.58;100.00